Flight Track Log - Related Links

Times and Time Zones

All times are in EDT time to prevent confusion due to time zone crossing. See the ASQ5230 flight status page for this flight to view local times or setup timezone preferences in your user account.

Time Position Orientation Groundspeed Altitude Reporting Facility
EDT Latitude Longitude Course Direction KTS MPH feet Rate Location/Type
Fri 07:14:01 AM 41.8203 -91.6383 162° South 231 266 35,000  Level Chicago Center
Fri 07:15:02 AM 41.7536 -91.6353 178° South 239 275 6,700 -12,885 Descending Chicago Center
Fri 07:16:03 AM 41.6783 -91.6275 176° South 276 318 8,800 1,918 Climbing Chicago Center
Fri 07:17:04 AM 41.5967 -91.6222 177° South 287 330 10,600 1,377 Climbing Chicago Center
Fri 07:18:00 AM 41.3940 -91.5480 166° South  Level FlightAware Approximate
Fri 07:18:05 AM 41.4964 -91.6033 172° South 343 395 11,600  Level Chicago Center
Fri 07:19:00 AM 41.2822 -91.5036 162° South  Level FlightAware Approximate
Fri 07:19:06 AM 41.3953 -91.5600 162° South 375 432 13,100  Level Chicago Center
Fri 07:20:07 AM 41.2883 -91.5111 161° South 395 455 14,600 1,415 Climbing Chicago Center
Fri 07:21:09 AM 41.1819 -91.4650 162° South 403 464 16,000 1,463 Climbing Chicago Center
Fri 07:22:10 AM 41.0719 -91.4164 162° South 414 476 17,600 1,623 Climbing Chicago Center
Fri 07:23:11 AM 40.9439 -91.3611 162° South 418 481 19,300 1,561 Climbing Chicago Center
Fri 07:24:13 AM 40.8311 -91.3122 162° South 419 482 20,800 1,512 Climbing Chicago Center
Fri 07:25:14 AM 40.7122 -91.2611 162° South 425 489 22,400 1,328 Climbing Chicago Center
Fri 07:26:15 AM 40.6008 -91.2122 162° South 425 489 23,500 1,024 Climbing Chicago Center
Fri 07:27:17 AM 40.4836 -91.1628 162° South 432 497 24,500 957 Climbing Chicago Center
Fri 07:28:33 AM 40.3611 -91.0456 144° Southeast 455 524 25,700 976 Climbing Kansas City Center
Fri 07:29:20 AM 40.2786 -90.9667 144° Southeast 451 519 26,500 1,111 Climbing Chicago Center
Fri 07:30:21 AM 40.1450 -90.9078 161° South 457 526 27,700 1,122 Climbing Chicago Center
Fri 07:31:23 AM 40.0197 -90.8844 172° South 458 527 28,800 1,232 Climbing Chicago Center
Fri 07:33:26 AM 39.7797 -90.8639 181° South 451 519 31,500 1,043 Climbing Chicago Center
Fri 07:34:27 AM 39.6931 -90.9586 220° Southwest 415 478 32,000 496 Climbing Chicago Center
Fri 07:35:39 AM 39.5767 -91.0939 222° Southwest 419 482 32,600 496 Climbing Kansas City Center
Fri 07:36:40 AM 39.4839 -91.2003 222° Southwest 435 501 33,100 492 Climbing Kansas City Center
Fri 07:37:41 AM 39.3897 -91.3103 222° Southwest 449 517 33,600 750 Climbing Kansas City Center
Fri 07:38:40 AM 39.2839 -91.4014 214° Southwest 460 529 34,600 683 Climbing Kansas City Center
Fri 07:39:44 AM 39.1572 -91.4225 187° South 465 535 35,000 194 Climbing Kansas City Center
Fri 07:40:44 AM 39.0250 -91.3817 167° South 487 560 35,000  Level Kansas City Center
Fri 07:41:45 AM 38.8889 -91.3322 164° South 502 578 35,000  Level Kansas City Center
Fri 07:42:46 AM 38.7536 -91.2831 164° South 506 582 35,000  Level Kansas City Center
Fri 07:43:45 AM 38.6206 -91.2347 164° South 506 582 35,000  Level Kansas City Center
Fri 07:44:47 AM 38.4892 -91.1869 164° South 499 574 35,000  Level Kansas City Center
Fri 07:45:47 AM 38.3331 -91.1319 165° South 495 570 35,000  Level Kansas City Center
Fri 07:46:48 AM 38.2053 -91.0861 164° South 488 562 35,000  Level Kansas City Center
Fri 07:47:49 AM 38.0786 -91.0381 163° South 483 556 35,000  Level Kansas City Center
Fri 07:48:52 AM 37.9511 -90.9931 164° South 480 552 35,000  Level Kansas City Center
Fri 07:49:50 AM 37.8242 -90.9483 164° South 480 552 35,000  Level Kansas City Center
Fri 07:52:12 AM 37.5144 -90.8378 164° South 476 548 35,000  Level Memphis Center
Fri 07:53:13 AM 37.3883 -90.7939 165° South 476 548 35,000  Level Memphis Center
Fri 07:53:56 AM 37.3086 -90.7678 165° South 474 545 35,000  Level Kansas City Center
Fri 07:54:57 AM 37.1753 -90.7222 165° South 474 545 35,000  Level Kansas City Center
Fri 07:55:59 AM 37.0464 -90.6753 164° South 478 550 35,000  Level Kansas City Center
Fri 07:57:59 AM 36.7853 -90.5844 164° South 486 559 35,000  Level Kansas City Center
Fri 07:59:02 AM 36.6561 -90.5394 164° South 486 559 35,000  Level Kansas City Center
Fri 08:00:24 AM 36.4725 -90.4742 164° South 488 562 35,000  Level Memphis Center
Fri 08:01:25 AM 36.3136 -90.4208 165° South 488 562 35,000  Level Memphis Center
Fri 08:02:26 AM 36.1817 -90.3761 165° South 489 563 35,000  Level Memphis Center
Fri 08:03:28 AM 36.0506 -90.3314 165° South 489 563 35,000  Level Memphis Center
Fri 08:04:29 AM 35.9186 -90.2872 165° South 490 564 35,000  Level Memphis Center
Fri 08:05:31 AM 35.7867 -90.2425 165° South 490 564 35,000  Level Memphis Center
Fri 08:06:32 AM 35.6544 -90.1986 165° South 490 564 35,000  Level Memphis Center
Fri 08:07:34 AM 35.5225 -90.1542 165° South 491 565 35,000  Level Memphis Center
Fri 08:08:35 AM 35.3906 -90.1097 165° South 491 565 35,000  Level Memphis Center
Fri 08:09:37 AM 35.2331 -90.0581 165° South 491 565 35,000  Level Memphis Center
Fri 08:10:39 AM 35.1064 -89.9956 158° South 502 578 35,000  Level Memphis Center
Fri 08:11:40 AM 35.0167 -89.8733 132° Southeast 492 566 35,000  Level Memphis Center
Fri 08:12:42 AM 34.9767 -89.7094 107° East 510 587 35,000  Level Memphis Center
Fri 08:13:43 AM 34.9364 -89.5464 107° East 499 574 35,000  Level Memphis Center
Fri 08:14:45 AM 34.8794 -89.3950 115° Southeast 493 567 35,000  Level Memphis Center
Fri 08:15:47 AM 34.8253 -89.2458 114° Southeast 487 560 35,000  Level Memphis Center
Fri 08:16:48 AM 34.7708 -89.0947 114° Southeast 486 559 35,000  Level Memphis Center
Fri 08:17:50 AM 34.7156 -88.9439 114° Southeast 487 560 35,000  Level Memphis Center
Fri 08:18:52 AM 34.6644 -88.7919 112° Southeast 486 559 35,000  Level Memphis Center
Fri 08:19:53 AM 34.6336 -88.6347 103° East 484 557 35,000 -146 Level Memphis Center
Fri 08:20:55 AM 34.6356 -88.4575 89° East 478 550 34,700 -629 Descending Memphis Center
Fri 08:21:57 AM 34.6325 -88.2931 91° East 482 555 33,700 -829 Descending Memphis Center
Fri 08:22:58 AM 34.6308 -88.1247 91° East 493 567 33,000 -341 Descending Memphis Center
Fri 08:24:00 AM 34.6275 -87.9242 91° East 495 570 33,000  Level Memphis Center
Fri 08:25:02 AM 34.6250 -87.7592 91° East 489 563 33,000  Level Memphis Center
Fri 08:26:03 AM 34.6231 -87.5925 91° East 489 563 33,000  Level Memphis Center
Fri 08:27:05 AM 34.6169 -87.4247 92° East 489 563 33,000  Level Memphis Center
Fri 08:28:07 AM 34.5850 -87.2594 103° East 494 568 33,000  Level Memphis Center
Fri 08:29:08 AM 34.5550 -87.0972 103° East 494 568 33,000  Level Memphis Center
Fri 08:30:10 AM 34.5242 -86.9358 103° East 493 567 33,000 -484 Level Memphis Center
Fri 08:31:12 AM 34.4925 -86.7747 103° East 492 566 32,000 -976 Descending Memphis Center
Fri 08:32:13 AM 34.4617 -86.6136 103° East 492 566 31,000 -976 Descending Memphis Center
Fri 08:33:15 AM 34.4303 -86.4528 103° East 492 566 30,000 -968 Descending Memphis Center
Fri 08:34:17 AM 34.3992 -86.2917 103° East 492 566 29,000 -1,073 Descending Memphis Center
Fri 08:35:18 AM 34.3592 -86.0969 104° East 493 567 27,800 -1,073 Descending Memphis Center
Fri 08:36:20 AM 34.3122 -85.9439 110° East 486 559 26,800 -1,742 Descending Memphis Center
Fri 08:37:22 AM 34.2539 -85.8011 116° Southeast 478 550 24,200 -2,537 Descending Memphis Center
Fri 08:38:23 AM 34.1978 -85.6672 117° Southeast 457 526 21,600 2,870 Descending Memphis Center
Fri 08:40:26 AM 34.0894 -85.4058 117° Southeast 417 480 33,000 -2,361 Climbing Atlanta Center
Fri 08:41:26 AM 34.0383 -85.2922 118° Southeast 402 463 14,400 -10,400 Descending Atlanta Center
Fri 08:42:26 AM 33.9914 -85.1789 117° Southeast 392 451 12,200 -1,350 Descending Atlanta Center
Fri 08:43:26 AM 33.9506 -85.0806 117° Southeast 361 415 11,700 -800 Descending Atlanta Center
Fri 08:44:26 AM 33.9117 -84.9925 118° Southeast 323 372 10,600 -1,100 Descending Atlanta Center
Fri 08:45:26 AM 33.8600 -84.9119 128° Southeast 311 358 9,500 -800 Descending Atlanta Center
Fri 08:46:26 AM 33.7850 -84.9011 173° South 261 300 9,000 -450 Descending Atlanta Center
Fri 08:47:26 AM 33.7203 -84.8931 174° South 243 280 8,600 -703 Descending Atlanta Center
Fri 08:48:17 AM 33.6667 -84.8667 158° South 242 278 7,700 -1,200 Descending Atlanta TRACON
Fri 08:49:11 AM 33.6333 -84.8167 129° Southeast 253 291 6,500 -1,111 Descending Atlanta TRACON
Fri 08:50:05 AM 33.6333 -84.7500 90° East 242 278 5,700 -1,158 Descending Atlanta TRACON
Fri 08:51:05 AM 33.6333 -84.6667 90° East 250 288 4,300 -1,300 Descending Atlanta TRACON
Fri 08:52:05 AM 33.6333 -84.5833 90° East 231 266 3,100 -1,111 Descending Atlanta TRACON
Fri 08:52:53 AM 33.6333 -84.5333 90° East 213 245 2,300 -944 Descending Atlanta TRACON
Fri 08:53:53 AM 33.6333 -84.4667 90° East 154 177 1,400 -900 Descending Atlanta TRACON
Fri 08:55:00 AM 33.6367 -84.4279 North  Level Estimated
Fri 09:02:00 AM 33.6367 -84.4279 North  Level Estimated
Fri 09:03:00 AM 33.6367 -84.4279 North  Level Estimated

Login

Don't have an account? Register now (free) for customized features, flight alerts, and more!